sensor_id;sensor_type;location;lat;lon;timestamp;P1;durP1;ratioP1;P2;durP2;ratioP2
14768;SDS011;7476;49.404;11.152;2022-09-01T00:01:09;6.00;;;5.40;;
14768;SDS011;7476;49.404;11.152;2022-09-01T00:03:38;6.10;;;5.03;;
14768;SDS011;7476;49.404;11.152;2022-09-01T00:06:06;5.57;;;5.07;;
14768;SDS011;7476;49.404;11.152;2022-09-01T00:08:35;8.37;;;5.90;;
14768;SDS011;7476;49.404;11.152;2022-09-01T00:11:02;5.80;;;5.30;;
14768;SDS011;7476;49.404;11.152;2022-09-01T00:13:29;6.70;;;5.77;;
14768;SDS011;7476;49.404;11.152;2022-09-01T00:15:59;5.87;;;5.33;;
14768;SDS011;7476;49.404;11.152;2022-09-01T00:18:28;5.77;;;5.27;;
14768;SDS011;7476;49.404;11.152;2022-09-01T00:20:55;6.03;;;5.47;;
14768;SDS011;7476;49.404;11.152;2022-09-01T00:23:23;6.00;;;5.40;;
14768;SDS011;7476;49.404;11.152;2022-09-01T00:25:50;5.73;;;5.23;;
14768;SDS011;7476;49.404;11.152;2022-09-01T00:28:17;6.17;;;5.57;;
14768;SDS011;7476;49.404;11.152;2022-09-01T00:30:44;6.17;;;5.57;;
14768;SDS011;7476;49.404;11.152;2022-09-01T00:33:13;5.87;;;5.37;;
14768;SDS011;7476;49.404;11.152;2022-09-01T00:35:40;7.33;;;5.37;;
14768;SDS011;7476;49.404;11.152;2022-09-01T00:38:07;5.77;;;5.27;;
14768;SDS011;7476;49.404;11.152;2022-09-01T00:40:34;5.70;;;5.20;;
14768;SDS011;7476;49.404;11.152;2022-09-01T00:43:09;5.77;;;5.27;;
14768;SDS011;7476;49.404;11.152;2022-09-01T00:45:37;7.13;;;5.40;;
14768;SDS011;7476;49.404;11.152;2022-09-01T00:48:03;6.63;;;5.97;;
14768;SDS011;7476;49.404;11.152;2022-09-01T00:50:32;7.07;;;5.50;;
14768;SDS011;7476;49.404;11.152;2022-09-01T00:52:59;6.70;;;6.10;;
14768;SDS011;7476;49.404;11.152;2022-09-01T00:55:27;5.73;;;5.23;;
14768;SDS011;7476;49.404;11.152;2022-09-01T00:57:56;6.60;;;5.90;;
14768;SDS011;7476;49.404;11.152;2022-09-01T01:00:27;6.47;;;5.53;;
14768;SDS011;7476;49.404;11.152;2022-09-01T01:02:55;6.43;;;5.83;;
14768;SDS011;7476;49.404;11.152;2022-09-01T01:05:23;5.90;;;5.30;;
14768;SDS011;7476;49.404;11.152;2022-09-01T01:07:53;5.90;;;5.40;;
14768;SDS011;7476;49.404;11.152;2022-09-01T01:10:21;6.43;;;5.73;;
14768;SDS011;7476;49.404;11.152;2022-09-01T01:12:50;7.07;;;5.73;;
14768;SDS011;7476;49.404;11.152;2022-09-01T01:15:18;6.87;;;5.60;;
14768;SDS011;7476;49.404;11.152;2022-09-01T01:17:46;6.20;;;5.60;;
14768;SDS011;7476;49.404;11.152;2022-09-01T01:20:13;6.03;;;5.53;;
14768;SDS011;7476;49.404;11.152;2022-09-01T01:23:02;6.90;;;6.20;;
14768;SDS011;7476;49.404;11.152;2022-09-01T01:25:38;6.80;;;6.13;;
14768;SDS011;7476;49.404;11.152;2022-09-01T01:28:11;6.23;;;5.63;;
14768;SDS011;7476;49.404;11.152;2022-09-01T01:30:41;8.13;;;6.17;;
14768;SDS011;7476;49.404;11.152;2022-09-01T01:33:15;6.73;;;6.03;;
14768;SDS011;7476;49.404;11.152;2022-09-01T01:35:42;6.00;;;5.50;;
14768;SDS011;7476;49.404;11.152;2022-09-01T01:38:09;5.63;;;5.13;;
14768;SDS011;7476;49.404;11.152;2022-09-01T01:40:38;5.43;;;4.93;;
14768;SDS011;7476;49.404;11.152;2022-09-01T01:43:05;6.33;;;5.70;;
14768;SDS011;7476;49.404;11.152;2022-09-01T01:45:32;6.10;;;5.57;;
14768;SDS011;7476;49.404;11.152;2022-09-01T01:47:59;6.30;;;5.70;;
14768;SDS011;7476;49.404;11.152;2022-09-01T01:50:34;6.63;;;6.03;;
14768;SDS011;7476;49.404;11.152;2022-09-01T01:53:02;6.10;;;5.50;;
14768;SDS011;7476;49.404;11.152;2022-09-01T01:55:31;6.50;;;5.77;;
14768;SDS011;7476;49.404;11.152;2022-09-01T01:57:59;6.30;;;5.80;;
14768;SDS011;7476;49.404;11.152;2022-09-01T02:00:29;5.87;;;5.37;;
14768;SDS011;7476;49.404;11.152;2022-09-01T02:02:58;6.33;;;5.73;;
14768;SDS011;7476;49.404;11.152;2022-09-01T02:05:27;6.53;;;5.73;;
14768;SDS011;7476;49.404;11.152;2022-09-01T02:07:57;6.70;;;5.90;;
14768;SDS011;7476;49.404;11.152;2022-09-01T02:10:29;8.10;;;6.00;;
14768;SDS011;7476;49.404;11.152;2022-09-01T02:12:58;7.80;;;6.63;;
14768;SDS011;7476;49.404;11.152;2022-09-01T02:15:30;6.93;;;6.20;;
14768;SDS011;7476;49.404;11.152;2022-09-01T02:17:59;6.43;;;5.83;;
14768;SDS011;7476;49.404;11.152;2022-09-01T02:20:28;6.30;;;5.70;;
14768;SDS011;7476;49.404;11.152;2022-09-01T02:22:56;6.90;;;6.20;;
14768;SDS011;7476;49.404;11.152;2022-09-01T02:25:35;7.33;;;6.20;;
14768;SDS011;7476;49.404;11.152;2022-09-01T02:28:05;7.50;;;6.70;;
14768;SDS011;7476;49.404;11.152;2022-09-01T02:30:33;7.80;;;6.13;;
14768;SDS011;7476;49.404;11.152;2022-09-01T02:33:02;8.93;;;6.60;;
14768;SDS011;7476;49.404;11.152;2022-09-01T02:35:29;7.00;;;6.30;;
14768;SDS011;7476;49.404;11.152;2022-09-01T02:37:58;7.13;;;6.30;;
14768;SDS011;7476;49.404;11.152;2022-09-01T02:40:25;7.27;;;6.57;;
14768;SDS011;7476;49.404;11.152;2022-09-01T02:42:53;7.07;;;6.47;;
14768;SDS011;7476;49.404;11.152;2022-09-01T02:45:22;7.83;;;7.03;;
14768;SDS011;7476;49.404;11.152;2022-09-01T02:47:49;7.80;;;6.50;;
14768;SDS011;7476;49.404;11.152;2022-09-01T02:50:16;7.40;;;6.70;;
14768;SDS011;7476;49.404;11.152;2022-09-01T02:52:43;7.03;;;6.43;;
14768;SDS011;7476;49.404;11.152;2022-09-01T02:55:12;7.93;;;6.70;;
14768;SDS011;7476;49.404;11.152;2022-09-01T02:57:46;7.60;;;6.80;;
14768;SDS011;7476;49.404;11.152;2022-09-01T03:00:13;7.23;;;6.50;;
14768;SDS011;7476;49.404;11.152;2022-09-01T03:02:51;7.20;;;6.50;;
14768;SDS011;7476;49.404;11.152;2022-09-01T03:05:18;7.43;;;6.80;;
14768;SDS011;7476;49.404;11.152;2022-09-01T03:07:50;7.47;;;6.67;;
14768;SDS011;7476;49.404;11.152;2022-09-01T03:10:20;7.20;;;6.50;;
14768;SDS011;7476;49.404;11.152;2022-09-01T03:12:51;7.30;;;6.70;;
14768;SDS011;7476;49.404;11.152;2022-09-01T03:15:18;8.00;;;7.20;;
14768;SDS011;7476;49.404;11.152;2022-09-01T03:17:45;8.83;;;6.77;;
14768;SDS011;7476;49.404;11.152;2022-09-01T03:20:14;7.17;;;6.47;;
14768;SDS011;7476;49.404;11.152;2022-09-01T03:22:43;9.17;;;7.37;;
14768;SDS011;7476;49.404;11.152;2022-09-01T03:25:11;8.50;;;7.63;;
14768;SDS011;7476;49.404;11.152;2022-09-01T03:27:38;8.17;;;7.37;;
14768;SDS011;7476;49.404;11.152;2022-09-01T03:30:05;9.43;;;6.70;;
14768;SDS011;7476;49.404;11.152;2022-09-01T03:32:32;7.57;;;6.77;;
14768;SDS011;7476;49.404;11.152;2022-09-01T03:34:59;8.00;;;7.20;;
14768;SDS011;7476;49.404;11.152;2022-09-01T03:37:27;8.70;;;7.27;;
14768;SDS011;7476;49.404;11.152;2022-09-01T03:39:54;7.80;;;7.10;;
14768;SDS011;7476;49.404;11.152;2022-09-01T03:42:21;8.93;;;7.77;;
14768;SDS011;7476;49.404;11.152;2022-09-01T03:44:49;8.93;;;8.03;;
14768;SDS011;7476;49.404;11.152;2022-09-01T03:47:17;8.00;;;7.30;;
14768;SDS011;7476;49.404;11.152;2022-09-01T03:49:45;10.47;;;8.43;;
14768;SDS011;7476;49.404;11.152;2022-09-01T03:52:13;8.40;;;7.70;;
14768;SDS011;7476;49.404;11.152;2022-09-01T03:54:42;8.67;;;7.87;;
14768;SDS011;7476;49.404;11.152;2022-09-01T03:57:10;8.80;;;7.47;;
14768;SDS011;7476;49.404;11.152;2022-09-01T03:59:36;8.67;;;7.77;;
14768;SDS011;7476;49.404;11.152;2022-09-01T04:02:09;10.33;;;7.80;;
14768;SDS011;7476;49.404;11.152;2022-09-01T04:04:37;8.73;;;7.80;;
14768;SDS011;7476;49.404;11.152;2022-09-01T04:07:03;8.63;;;7.80;;
14768;SDS011;7476;49.404;11.152;2022-09-01T04:09:31;8.97;;;8.03;;
14768;SDS011;7476;49.404;11.152;2022-09-01T04:12:02;8.70;;;7.80;;
14768;SDS011;7476;49.404;11.152;2022-09-01T04:14:32;8.40;;;7.60;;
14768;SDS011;7476;49.404;11.152;2022-09-01T04:17:00;11.43;;;7.60;;
14768;SDS011;7476;49.404;11.152;2022-09-01T04:19:44;7.73;;;7.03;;
14768;SDS011;7476;49.404;11.152;2022-09-01T04:22:11;8.50;;;7.60;;
14768;SDS011;7476;49.404;11.152;2022-09-01T04:24:41;8.23;;;7.40;;
14768;SDS011;7476;49.404;11.152;2022-09-01T04:27:12;8.27;;;7.47;;
14768;SDS011;7476;49.404;11.152;2022-09-01T04:29:39;7.33;;;6.70;;
14768;SDS011;7476;49.404;11.152;2022-09-01T04:32:07;8.83;;;7.93;;
14768;SDS011;7476;49.404;11.152;2022-09-01T04:34:37;8.37;;;7.50;;
14768;SDS011;7476;49.404;11.152;2022-09-01T04:37:06;9.67;;;8.23;;
14768;SDS011;7476;49.404;11.152;2022-09-01T04:39:34;10.13;;;8.33;;
14768;SDS011;7476;49.404;11.152;2022-09-01T04:42:03;8.30;;;7.53;;
14768;SDS011;7476;49.404;11.152;2022-09-01T04:44:34;8.63;;;7.83;;
14768;SDS011;7476;49.404;11.152;2022-09-01T04:47:01;8.43;;;7.63;;
14768;SDS011;7476;49.404;11.152;2022-09-01T04:49:34;8.27;;;7.47;;
14768;SDS011;7476;49.404;11.152;2022-09-01T04:52:01;8.30;;;7.40;;
14768;SDS011;7476;49.404;11.152;2022-09-01T04:54:29;7.27;;;6.60;;
14768;SDS011;7476;49.404;11.152;2022-09-01T04:56:57;7.70;;;6.97;;
14768;SDS011;7476;49.404;11.152;2022-09-01T04:59:24;8.50;;;7.60;;
14768;SDS011;7476;49.404;11.152;2022-09-01T05:01:54;8.03;;;7.30;;
14768;SDS011;7476;49.404;11.152;2022-09-01T05:04:24;8.33;;;7.53;;
14768;SDS011;7476;49.404;11.152;2022-09-01T05:06:54;8.93;;;7.03;;
14768;SDS011;7476;49.404;11.152;2022-09-01T05:09:23;8.30;;;7.60;;
14768;SDS011;7476;49.404;11.152;2022-09-01T05:11:51;8.57;;;7.53;;
14768;SDS011;7476;49.404;11.152;2022-09-01T05:14:18;8.37;;;7.67;;
14768;SDS011;7476;49.404;11.152;2022-09-01T05:16:45;8.80;;;7.90;;
14768;SDS011;7476;49.404;11.152;2022-09-01T05:19:14;9.20;;;8.30;;
14768;SDS011;7476;49.404;11.152;2022-09-01T05:21:45;9.70;;;8.73;;
14768;SDS011;7476;49.404;11.152;2022-09-01T05:24:14;7.93;;;7.17;;
14768;SDS011;7476;49.404;11.152;2022-09-01T05:26:44;9.13;;;8.17;;
14768;SDS011;7476;49.404;11.152;2022-09-01T05:29:14;7.20;;;6.60;;
14768;SDS011;7476;49.404;11.152;2022-09-01T05:31:42;6.97;;;6.23;;
14768;SDS011;7476;49.404;11.152;2022-09-01T05:34:11;7.80;;;5.70;;
14768;SDS011;7476;49.404;11.152;2022-09-01T05:36:41;6.40;;;5.80;;
14768;SDS011;7476;49.404;11.152;2022-09-01T05:39:10;5.93;;;5.33;;
14768;SDS011;7476;49.404;11.152;2022-09-01T05:41:37;5.87;;;5.37;;
14768;SDS011;7476;49.404;11.152;2022-09-01T05:44:05;6.10;;;5.50;;
14768;SDS011;7476;49.404;11.152;2022-09-01T05:46:32;5.97;;;5.37;;
14768;SDS011;7476;49.404;11.152;2022-09-01T05:49:01;5.97;;;5.47;;
14768;SDS011;7476;49.404;11.152;2022-09-01T05:51:28;10.07;;;5.60;;
14768;SDS011;7476;49.404;11.152;2022-09-01T05:53:59;5.87;;;5.27;;
14768;SDS011;7476;49.404;11.152;2022-09-01T05:56:26;6.13;;;5.53;;
14768;SDS011;7476;49.404;11.152;2022-09-01T05:58:54;7.37;;;5.80;;
14768;SDS011;7476;49.404;11.152;2022-09-01T06:01:24;6.20;;;5.60;;
14768;SDS011;7476;49.404;11.152;2022-09-01T06:03:52;6.33;;;5.80;;
14768;SDS011;7476;49.404;11.152;2022-09-01T06:06:22;6.70;;;4.97;;
14768;SDS011;7476;49.404;11.152;2022-09-01T06:08:50;4.80;;;4.40;;
14768;SDS011;7476;49.404;11.152;2022-09-01T06:11:24;4.70;;;4.27;;
14768;SDS011;7476;49.404;11.152;2022-09-01T06:13:53;5.33;;;4.00;;
14768;SDS011;7476;49.404;11.152;2022-09-01T06:16:22;5.70;;;3.53;;
14768;SDS011;7476;49.404;11.152;2022-09-01T06:18:50;6.23;;;3.70;;
14768;SDS011;7476;49.404;11.152;2022-09-01T06:21:18;4.80;;;3.70;;
14768;SDS011;7476;49.404;11.152;2022-09-01T06:23:46;3.87;;;3.07;;
14768;SDS011;7476;49.404;11.152;2022-09-01T06:26:15;3.80;;;3.30;;
14768;SDS011;7476;49.404;11.152;2022-09-01T06:28:44;4.17;;;3.40;;
14768;SDS011;7476;49.404;11.152;2022-09-01T06:31:12;4.00;;;3.03;;
14768;SDS011;7476;49.404;11.152;2022-09-01T06:33:39;4.03;;;3.50;;
14768;SDS011;7476;49.404;11.152;2022-09-01T06:36:06;4.20;;;3.60;;
14768;SDS011;7476;49.404;11.152;2022-09-01T06:38:34;4.73;;;3.57;;
14768;SDS011;7476;49.404;11.152;2022-09-01T06:41:01;3.90;;;3.57;;
14768;SDS011;7476;49.404;11.152;2022-09-01T06:43:31;3.57;;;3.27;;
14768;SDS011;7476;49.404;11.152;2022-09-01T06:46:00;4.43;;;3.67;;
14768;SDS011;7476;49.404;11.152;2022-09-01T06:48:27;4.10;;;3.67;;
14768;SDS011;7476;49.404;11.152;2022-09-01T06:50:57;3.27;;;3.03;;
14768;SDS011;7476;49.404;11.152;2022-09-01T06:53:27;4.03;;;3.23;;
14768;SDS011;7476;49.404;11.152;2022-09-01T06:55:55;3.90;;;3.50;;
14768;SDS011;7476;49.404;11.152;2022-09-01T06:58:22;5.37;;;3.40;;
14768;SDS011;7476;49.404;11.152;2022-09-01T07:00:49;3.80;;;3.40;;
14768;SDS011;7476;49.404;11.152;2022-09-01T07:03:17;4.40;;;3.77;;
14768;SDS011;7476;49.404;11.152;2022-09-01T07:05:47;5.03;;;3.60;;
14768;SDS011;7476;49.404;11.152;2022-09-01T07:08:17;5.30;;;3.33;;
14768;SDS011;7476;49.404;11.152;2022-09-01T07:10:46;3.67;;;3.30;;
14768;SDS011;7476;49.404;11.152;2022-09-01T07:13:15;4.43;;;3.67;;
14768;SDS011;7476;49.404;11.152;2022-09-01T07:15:44;3.40;;;3.10;;
14768;SDS011;7476;49.404;11.152;2022-09-01T07:18:14;4.57;;;3.30;;
14768;SDS011;7476;49.404;11.152;2022-09-01T07:20:43;3.43;;;3.13;;
14768;SDS011;7476;49.404;11.152;2022-09-01T07:23:12;3.87;;;3.30;;
14768;SDS011;7476;49.404;11.152;2022-09-01T07:25:41;4.70;;;3.40;;
14768;SDS011;7476;49.404;11.152;2022-09-01T07:28:09;4.77;;;3.40;;
14768;SDS011;7476;49.404;11.152;2022-09-01T07:30:39;3.80;;;3.40;;
14768;SDS011;7476;49.404;11.152;2022-09-01T07:33:07;3.67;;;3.20;;
14768;SDS011;7476;49.404;11.152;2022-09-01T07:35:36;3.23;;;2.80;;
14768;SDS011;7476;49.404;11.152;2022-09-01T07:38:04;4.47;;;3.00;;
14768;SDS011;7476;49.404;11.152;2022-09-01T07:40:32;6.03;;;3.83;;
14768;SDS011;7476;49.404;11.152;2022-09-01T07:43:02;4.10;;;3.57;;
14768;SDS011;7476;49.404;11.152;2022-09-01T07:45:32;4.50;;;3.73;;
14768;SDS011;7476;49.404;11.152;2022-09-01T07:48:01;3.90;;;3.60;;
14768;SDS011;7476;49.404;11.152;2022-09-01T07:50:31;4.70;;;3.57;;
14768;SDS011;7476;49.404;11.152;2022-09-01T07:52:59;5.70;;;3.80;;
14768;SDS011;7476;49.404;11.152;2022-09-01T07:55:27;4.37;;;3.67;;
14768;SDS011;7476;49.404;11.152;2022-09-01T07:57:54;5.23;;;3.67;;
14768;SDS011;7476;49.404;11.152;2022-09-01T08:00:21;4.60;;;3.40;;
14768;SDS011;7476;49.404;11.152;2022-09-01T08:02:48;4.13;;;3.73;;
14768;SDS011;7476;49.404;11.152;2022-09-01T08:05:16;5.30;;;3.70;;
14768;SDS011;7476;49.404;11.152;2022-09-01T08:07:46;3.60;;;3.30;;
14768;SDS011;7476;49.404;11.152;2022-09-01T08:10:14;4.67;;;4.10;;
14768;SDS011;7476;49.404;11.152;2022-09-01T08:12:42;5.70;;;4.50;;
14768;SDS011;7476;49.404;11.152;2022-09-01T08:15:09;5.77;;;3.80;;
14768;SDS011;7476;49.404;11.152;2022-09-01T08:17:37;4.73;;;3.83;;
14768;SDS011;7476;49.404;11.152;2022-09-01T08:20:04;4.97;;;4.37;;
14768;SDS011;7476;49.404;11.152;2022-09-01T08:22:33;5.27;;;3.60;;
14768;SDS011;7476;49.404;11.152;2022-09-01T08:25:01;4.80;;;3.83;;
14768;SDS011;7476;49.404;11.152;2022-09-01T08:27:30;4.40;;;4.00;;
14768;SDS011;7476;49.404;11.152;2022-09-01T08:29:58;4.17;;;3.87;;
14768;SDS011;7476;49.404;11.152;2022-09-01T08:32:25;4.87;;;3.40;;
14768;SDS011;7476;49.404;11.152;2022-09-01T08:34:52;4.27;;;3.60;;
14768;SDS011;7476;49.404;11.152;2022-09-01T08:37:19;4.70;;;3.57;;
14768;SDS011;7476;49.404;11.152;2022-09-01T08:39:46;4.27;;;3.80;;
14768;SDS011;7476;49.404;11.152;2022-09-01T08:42:15;3.73;;;3.20;;
14768;SDS011;7476;49.404;11.152;2022-09-01T08:44:50;3.70;;;3.37;;
14768;SDS011;7476;49.404;11.152;2022-09-01T08:47:24;4.27;;;3.00;;
14768;SDS011;7476;49.404;11.152;2022-09-01T08:49:51;3.50;;;3.20;;
14768;SDS011;7476;49.404;11.152;2022-09-01T08:52:20;3.50;;;3.20;;
14768;SDS011;7476;49.404;11.152;2022-09-01T08:54:52;5.07;;;3.47;;
14768;SDS011;7476;49.404;11.152;2022-09-01T08:57:24;3.83;;;2.67;;
14768;SDS011;7476;49.404;11.152;2022-09-01T08:59:56;3.63;;;3.07;;
14768;SDS011;7476;49.404;11.152;2022-09-01T09:02:30;3.80;;;2.73;;
14768;SDS011;7476;49.404;11.152;2022-09-01T09:05:05;3.80;;;3.00;;
14768;SDS011;7476;49.404;11.152;2022-09-01T09:07:39;2.80;;;2.60;;
14768;SDS011;7476;49.404;11.152;2022-09-01T09:10:16;4.40;;;2.80;;
14768;SDS011;7476;49.404;11.152;2022-09-01T09:12:51;3.60;;;3.00;;
14768;SDS011;7476;49.404;11.152;2022-09-01T09:15:25;3.30;;;3.00;;
14768;SDS011;7476;49.404;11.152;2022-09-01T09:18:00;3.00;;;2.80;;
14768;SDS011;7476;49.404;11.152;2022-09-01T09:20:36;3.10;;;2.80;;
14768;SDS011;7476;49.404;11.152;2022-09-01T09:23:03;3.33;;;3.03;;
14768;SDS011;7476;49.404;11.152;2022-09-01T09:25:41;3.60;;;3.30;;
14768;SDS011;7476;49.404;11.152;2022-09-01T09:28:08;3.50;;;3.17;;
14768;SDS011;7476;49.404;11.152;2022-09-01T09:30:35;3.97;;;3.00;;
14768;SDS011;7476;49.404;11.152;2022-09-01T09:33:04;3.43;;;3.10;;
14768;SDS011;7476;49.404;11.152;2022-09-01T09:35:35;4.43;;;3.03;;
14768;SDS011;7476;49.404;11.152;2022-09-01T09:38:14;3.03;;;2.77;;
14768;SDS011;7476;49.404;11.152;2022-09-01T09:40:56;3.00;;;2.70;;
14768;SDS011;7476;49.404;11.152;2022-09-01T09:43:25;3.27;;;2.97;;
14768;SDS011;7476;49.404;11.152;2022-09-01T09:46:02;5.10;;;3.03;;
14768;SDS011;7476;49.404;11.152;2022-09-01T09:48:48;3.00;;;2.80;;
14768;SDS011;7476;49.404;11.152;2022-09-01T09:51:30;2.80;;;2.60;;
14768;SDS011;7476;49.404;11.152;2022-09-01T09:54:09;2.90;;;2.70;;
14768;SDS011;7476;49.404;11.152;2022-09-01T09:56:37;4.30;;;3.07;;
14768;SDS011;7476;49.404;11.152;2022-09-01T09:59:14;3.00;;;2.70;;
14768;SDS011;7476;49.404;11.152;2022-09-01T10:01:49;3.00;;;2.80;;
14768;SDS011;7476;49.404;11.152;2022-09-01T10:04:30;3.70;;;2.80;;
14768;SDS011;7476;49.404;11.152;2022-09-01T10:06:59;3.53;;;3.10;;
14768;SDS011;7476;49.404;11.152;2022-09-01T10:09:33;3.37;;;2.70;;
14768;SDS011;7476;49.404;11.152;2022-09-01T10:12:03;3.00;;;2.53;;
14768;SDS011;7476;49.404;11.152;2022-09-01T10:14:32;2.97;;;2.57;;
14768;SDS011;7476;49.404;11.152;2022-09-01T10:17:10;2.60;;;2.40;;
14768;SDS011;7476;49.404;11.152;2022-09-01T10:19:41;2.70;;;2.50;;
14768;SDS011;7476;49.404;11.152;2022-09-01T10:22:14;4.10;;;2.50;;
14768;SDS011;7476;49.404;11.152;2022-09-01T10:24:40;4.63;;;2.80;;
14768;SDS011;7476;49.404;11.152;2022-09-01T10:27:10;2.87;;;2.67;;
14768;SDS011;7476;49.404;11.152;2022-09-01T10:29:42;4.40;;;2.47;;
14768;SDS011;7476;49.404;11.152;2022-09-01T10:32:14;2.93;;;2.73;;
14768;SDS011;7476;49.404;11.152;2022-09-01T10:34:43;3.83;;;2.80;;
14768;SDS011;7476;49.404;11.152;2022-09-01T10:37:11;3.03;;;2.80;;
14768;SDS011;7476;49.404;11.152;2022-09-01T10:42:37;2.80;;;2.50;;
14768;SDS011;7476;49.404;11.152;2022-09-01T10:45:07;3.17;;;2.87;;
14768;SDS011;7476;49.404;11.152;2022-09-01T10:47:47;3.00;;;2.63;;
14768;SDS011;7476;49.404;11.152;2022-09-01T10:53:00;3.37;;;2.70;;
14768;SDS011;7476;49.404;11.152;2022-09-01T10:55:36;3.03;;;2.40;;
14768;SDS011;7476;49.404;11.152;2022-09-01T10:58:11;3.37;;;2.70;;
14768;SDS011;7476;49.404;11.152;2022-09-01T11:00:53;3.03;;;2.60;;
14768;SDS011;7476;49.404;11.152;2022-09-01T11:03:47;2.93;;;2.73;;
14768;SDS011;7476;49.404;11.152;2022-09-01T11:09:17;3.90;;;2.90;;
14768;SDS011;7476;49.404;11.152;2022-09-01T11:11:48;4.10;;;2.53;;
14768;SDS011;7476;49.404;11.152;2022-09-01T11:14:27;4.10;;;2.50;;
14768;SDS011;7476;49.404;11.152;2022-09-01T11:17:09;3.33;;;2.60;;
14768;SDS011;7476;49.404;11.152;2022-09-01T11:19:39;3.30;;;2.50;;
14768;SDS011;7476;49.404;11.152;2022-09-01T11:22:22;3.73;;;2.93;;
14768;SDS011;7476;49.404;11.152;2022-09-01T11:25:07;2.93;;;2.57;;
14768;SDS011;7476;49.404;11.152;2022-09-01T11:31:25;2.60;;;2.23;;
14768;SDS011;7476;49.404;11.152;2022-09-01T11:33:58;2.90;;;2.53;;
14768;SDS011;7476;49.404;11.152;2022-09-01T11:36:32;2.93;;;2.70;;
14768;SDS011;7476;49.404;11.152;2022-09-01T11:39:05;2.80;;;2.60;;
14768;SDS011;7476;49.404;11.152;2022-09-01T11:41:43;4.03;;;2.40;;
14768;SDS011;7476;49.404;11.152;2022-09-01T11:44:18;3.27;;;2.73;;
14768;SDS011;7476;49.404;11.152;2022-09-01T11:46:49;3.00;;;2.70;;
14768;SDS011;7476;49.404;11.152;2022-09-01T11:49:24;3.53;;;2.80;;
14768;SDS011;7476;49.404;11.152;2022-09-01T11:51:55;2.90;;;2.70;;
14768;SDS011;7476;49.404;11.152;2022-09-01T11:54:24;3.47;;;3.00;;
14768;SDS011;7476;49.404;11.152;2022-09-01T11:56:53;2.93;;;2.73;;
14768;SDS011;7476;49.404;11.152;2022-09-01T11:59:30;3.27;;;2.97;;
14768;SDS011;7476;49.404;11.152;2022-09-01T12:01:57;3.20;;;2.90;;
14768;SDS011;7476;49.404;11.152;2022-09-01T12:04:28;3.03;;;2.73;;
14768;SDS011;7476;49.404;11.152;2022-09-01T12:06:59;3.20;;;2.70;;
14768;SDS011;7476;49.404;11.152;2022-09-01T12:09:32;3.00;;;2.80;;
14768;SDS011;7476;49.404;11.152;2022-09-01T12:12:00;3.37;;;3.00;;
14768;SDS011;7476;49.404;11.152;2022-09-01T12:14:27;4.30;;;2.87;;
14768;SDS011;7476;49.404;11.152;2022-09-01T12:16:58;2.70;;;2.50;;
14768;SDS011;7476;49.404;11.152;2022-09-01T12:19:26;2.53;;;2.33;;
14768;SDS011;7476;49.404;11.152;2022-09-01T12:21:55;2.63;;;2.43;;
14768;SDS011;7476;49.404;11.152;2022-09-01T12:24:27;2.47;;;2.20;;
14768;SDS011;7476;49.404;11.152;2022-09-01T12:26:58;2.57;;;2.37;;
14768;SDS011;7476;49.404;11.152;2022-09-01T12:29:26;2.60;;;2.27;;
14768;SDS011;7476;49.404;11.152;2022-09-01T12:31:53;2.80;;;2.50;;
14768;SDS011;7476;49.404;11.152;2022-09-01T12:34:25;3.30;;;2.20;;
14768;SDS011;7476;49.404;11.152;2022-09-01T12:37:03;2.80;;;2.30;;
14768;SDS011;7476;49.404;11.152;2022-09-01T12:39:32;3.53;;;2.20;;
14768;SDS011;7476;49.404;11.152;2022-09-01T12:42:02;2.60;;;2.40;;
14768;SDS011;7476;49.404;11.152;2022-09-01T12:44:41;2.60;;;2.40;;
14768;SDS011;7476;49.404;11.152;2022-09-01T12:47:11;4.87;;;2.37;;
14768;SDS011;7476;49.404;11.152;2022-09-01T12:49:41;4.40;;;2.37;;
14768;SDS011;7476;49.404;11.152;2022-09-01T12:52:12;2.30;;;2.10;;
14768;SDS011;7476;49.404;11.152;2022-09-01T12:54:46;2.87;;;2.43;;
14768;SDS011;7476;49.404;11.152;2022-09-01T12:57:22;2.40;;;2.20;;
14768;SDS011;7476;49.404;11.152;2022-09-01T13:00:04;3.70;;;2.50;;
14768;SDS011;7476;49.404;11.152;2022-09-01T13:02:40;2.50;;;2.30;;
14768;SDS011;7476;49.404;11.152;2022-09-01T13:05:18;4.77;;;2.70;;
14768;SDS011;7476;49.404;11.152;2022-09-01T13:07:48;3.70;;;2.57;;
14768;SDS011;7476;49.404;11.152;2022-09-01T13:10:18;3.50;;;2.67;;
14768;SDS011;7476;49.404;11.152;2022-09-01T13:12:46;2.63;;;2.43;;
14768;SDS011;7476;49.404;11.152;2022-09-01T13:15:13;2.50;;;2.30;;
14768;SDS011;7476;49.404;11.152;2022-09-01T13:17:39;2.80;;;2.60;;
14768;SDS011;7476;49.404;11.152;2022-09-01T13:20:07;4.20;;;2.53;;
14768;SDS011;7476;49.404;11.152;2022-09-01T13:22:36;2.83;;;2.40;;
14768;SDS011;7476;49.404;11.152;2022-09-01T13:25:04;2.47;;;2.20;;
14768;SDS011;7476;49.404;11.152;2022-09-01T13:27:32;2.50;;;2.30;;
14768;SDS011;7476;49.404;11.152;2022-09-01T13:29:59;2.40;;;2.20;;
14768;SDS011;7476;49.404;11.152;2022-09-01T13:32:26;2.50;;;2.30;;
14768;SDS011;7476;49.404;11.152;2022-09-01T13:34:52;2.57;;;2.27;;
14768;SDS011;7476;49.404;11.152;2022-09-01T13:37:20;2.37;;;2.17;;
14768;SDS011;7476;49.404;11.152;2022-09-01T13:39:48;2.40;;;2.20;;
14768;SDS011;7476;49.404;11.152;2022-09-01T13:42:16;2.20;;;2.00;;
14768;SDS011;7476;49.404;11.152;2022-09-01T13:44:44;2.47;;;1.90;;
14768;SDS011;7476;49.404;11.152;2022-09-01T13:47:12;2.70;;;2.30;;
14768;SDS011;7476;49.404;11.152;2022-09-01T13:49:39;2.30;;;2.10;;
14768;SDS011;7476;49.404;11.152;2022-09-01T13:52:06;2.07;;;1.87;;
14768;SDS011;7476;49.404;11.152;2022-09-01T13:54:32;2.20;;;2.00;;
14768;SDS011;7476;49.404;11.152;2022-09-01T13:56:59;2.70;;;2.50;;
14768;SDS011;7476;49.404;11.152;2022-09-01T13:59:27;2.80;;;2.23;;
14768;SDS011;7476;49.404;11.152;2022-09-01T14:01:54;2.50;;;2.30;;
14768;SDS011;7476;49.404;11.152;2022-09-01T14:04:21;2.70;;;2.43;;
14768;SDS011;7476;49.404;11.152;2022-09-01T14:06:50;2.40;;;2.20;;
14768;SDS011;7476;49.404;11.152;2022-09-01T14:09:19;2.30;;;2.10;;
14768;SDS011;7476;49.404;11.152;2022-09-01T14:11:46;2.60;;;2.27;;
14768;SDS011;7476;49.404;11.152;2022-09-01T14:14:13;2.57;;;2.20;;
14768;SDS011;7476;49.404;11.152;2022-09-01T14:16:41;3.78;;;2.35;;
14768;SDS011;7476;49.404;11.152;2022-09-01T14:19:10;2.40;;;2.20;;
14768;SDS011;7476;49.404;11.152;2022-09-01T14:21:37;2.85;;;2.00;;
14768;SDS011;7476;49.404;11.152;2022-09-01T14:24:04;3.13;;;2.10;;
14768;SDS011;7476;49.404;11.152;2022-09-01T14:26:31;2.90;;;2.30;;
14768;SDS011;7476;49.404;11.152;2022-09-01T14:28:57;2.47;;;2.17;;
14768;SDS011;7476;49.404;11.152;2022-09-01T14:31:26;2.35;;;2.15;;
14768;SDS011;7476;49.404;11.152;2022-09-01T14:33:55;2.40;;;2.20;;
14768;SDS011;7476;49.404;11.152;2022-09-01T14:36:23;3.55;;;2.08;;
14768;SDS011;7476;49.404;11.152;2022-09-01T14:38:51;3.45;;;2.47;;
14768;SDS011;7476;49.404;11.152;2022-09-01T14:41:21;2.28;;;2.03;;
14768;SDS011;7476;49.404;11.152;2022-09-01T14:43:49;3.72;;;2.50;;
14768;SDS011;7476;49.404;11.152;2022-09-01T14:46:16;2.75;;;2.35;;
14768;SDS011;7476;49.404;11.152;2022-09-01T14:48:44;2.40;;;2.22;;
14768;SDS011;7476;49.404;11.152;2022-09-01T14:51:18;2.92;;;2.38;;
14768;SDS011;7476;49.404;11.152;2022-09-01T14:53:47;2.97;;;2.10;;
14768;SDS011;7476;49.404;11.152;2022-09-01T14:56:14;2.13;;;1.92;;
14768;SDS011;7476;49.404;11.152;2022-09-01T14:58:42;2.15;;;1.92;;
14768;SDS011;7476;49.404;11.152;2022-09-01T15:01:11;3.17;;;2.13;;
14768;SDS011;7476;49.404;11.152;2022-09-01T15:03:38;2.63;;;2.13;;
14768;SDS011;7476;49.404;11.152;2022-09-01T15:06:06;2.27;;;2.07;;
14768;SDS011;7476;49.404;11.152;2022-09-01T15:08:34;2.30;;;2.10;;
14768;SDS011;7476;49.404;11.152;2022-09-01T15:11:00;2.47;;;2.27;;
14768;SDS011;7476;49.404;11.152;2022-09-01T15:13:27;3.70;;;2.40;;
14768;SDS011;7476;49.404;11.152;2022-09-01T15:15:54;3.10;;;2.50;;